createdAt,value
2018-07-24T00:00:13.374Z,7.17
2018-07-24T00:02:42.442Z,6.30
2018-07-24T00:05:11.486Z,6.63
2018-07-24T00:07:40.522Z,7.73
2018-07-24T00:10:09.578Z,8.20
2018-07-24T00:12:38.611Z,7.43
2018-07-24T00:15:07.758Z,7.77
2018-07-24T00:17:36.907Z,7.37
2018-07-24T00:20:06.474Z,8.20
2018-07-24T00:22:35.522Z,8.63
2018-07-24T00:25:04.633Z,7.00
2018-07-24T00:27:33.683Z,9.20
2018-07-24T00:30:02.763Z,8.97
2018-07-24T00:32:31.938Z,9.37
2018-07-24T00:35:00.986Z,7.07
2018-07-24T00:37:30.052Z,8.37
2018-07-24T00:39:59.087Z,9.30
2018-07-24T00:42:28.138Z,7.27
2018-07-24T00:44:57.226Z,7.53
2018-07-24T00:47:26.315Z,8.43
2018-07-24T00:49:55.366Z,7.17
2018-07-24T00:52:24.414Z,7.67
2018-07-24T00:54:53.467Z,7.93
2018-07-24T00:57:22.506Z,8.70
2018-07-24T00:59:51.563Z,7.60
2018-07-24T01:02:20.676Z,7.13
2018-07-24T01:04:49.741Z,8.50
2018-07-24T01:07:18.790Z,8.03
2018-07-24T01:09:47.842Z,7.00
2018-07-24T01:12:16.951Z,7.13
2018-07-24T01:14:45.778Z,7.00
2018-07-24T01:17:14.708Z,7.33
2018-07-24T01:19:43.807Z,7.57
2018-07-24T01:22:12.898Z,7.37
2018-07-24T01:24:43.101Z,7.40
2018-07-24T01:27:12.179Z,8.40
2018-07-24T01:29:41.234Z,7.77
2018-07-24T01:32:10.107Z,7.10
2018-07-24T01:34:39.056Z,8.07
2018-07-24T01:37:08.147Z,6.83
2018-07-24T01:39:37.205Z,7.43
2018-07-24T01:42:06.271Z,7.10
2018-07-24T01:44:35.330Z,7.33
2018-07-24T01:47:04.812Z,9.40
2018-07-24T01:49:33.893Z,6.97
2018-07-24T01:52:02.951Z,7.27
2018-07-24T01:54:32.027Z,7.73
2018-07-24T01:57:01.096Z,8.17
2018-07-24T01:59:30.142Z,9.43
2018-07-24T02:01:59.209Z,8.70
2018-07-24T02:04:28.304Z,8.97
2018-07-24T02:06:57.354Z,6.63
2018-07-24T02:09:26.412Z,7.23
2018-07-24T02:11:55.496Z,9.73
2018-07-24T02:14:24.595Z,6.63
2018-07-24T02:16:53.650Z,9.43
2018-07-24T02:19:22.975Z,9.67
2018-07-24T02:21:52.036Z,7.33
2018-07-24T02:24:21.107Z,7.47
2018-07-24T02:26:50.259Z,6.73
2018-07-24T02:29:19.062Z,8.43
2018-07-24T02:31:48.053Z,6.63
2018-07-24T02:34:17.047Z,6.23
2018-07-24T02:36:46.104Z,7.67
2018-07-24T02:39:15.162Z,8.33
2018-07-24T02:41:44.224Z,7.63
2018-07-24T02:44:13.274Z,7.50
2018-07-24T02:46:42.366Z,9.50
2018-07-24T02:49:11.406Z,9.47
2018-07-24T02:51:40.463Z,8.80
2018-07-24T02:54:09.527Z,8.10
2018-07-24T02:56:38.588Z,7.97
2018-07-24T02:59:07.679Z,9.27
2018-07-24T03:01:36.762Z,8.87
2018-07-24T03:04:05.863Z,7.87
2018-07-24T03:06:34.899Z,8.13
2018-07-24T03:09:05.727Z,8.70
2018-07-24T03:11:34.791Z,10.10
2018-07-24T03:14:03.902Z,10.53
2018-07-24T03:16:32.967Z,9.97
2018-07-24T03:19:02.044Z,10.80
2018-07-24T03:21:31.285Z,8.67
2018-07-24T03:24:00.356Z,9.53
2018-07-24T03:26:29.407Z,9.70
2018-07-24T03:28:58.467Z,10.30
2018-07-24T03:31:27.547Z,8.63
2018-07-24T03:33:56.633Z,9.17
2018-07-24T03:36:25.681Z,10.50
2018-07-24T03:38:54.735Z,9.60
2018-07-24T03:41:24.252Z,9.13
2018-07-24T03:43:53.359Z,11.77
2018-07-24T03:46:22.417Z,11.60
2018-07-24T03:48:51.482Z,11.57
2018-07-24T03:51:20.554Z,9.33
2018-07-24T03:53:49.607Z,13.40
2018-07-24T03:56:18.658Z,12.23
2018-07-24T03:58:47.720Z,9.80
2018-07-24T04:01:16.778Z,9.57
2018-07-24T04:03:45.857Z,10.40
2018-07-24T04:06:14.919Z,11.57
2018-07-24T04:08:44.024Z,10.60
2018-07-24T04:11:13.119Z,13.93
2018-07-24T04:13:42.183Z,10.43
2018-07-24T04:16:11.230Z,9.30
2018-07-24T04:18:46.929Z,10.73
2018-07-24T04:21:17.366Z,14.63
2018-07-24T04:23:47.175Z,9.60
2018-07-24T04:26:16.247Z,10.13
2018-07-24T04:28:46.097Z,10.60
2018-07-24T04:31:15.501Z,10.10
2018-07-24T04:33:44.740Z,10.40
2018-07-24T04:36:13.803Z,10.90
2018-07-24T04:38:42.854Z,11.17
2018-07-24T04:41:11.695Z,10.60
2018-07-24T04:43:40.626Z,10.60
2018-07-24T04:46:09.691Z,12.67
2018-07-24T04:48:38.745Z,10.97
2018-07-24T04:51:07.929Z,12.83
2018-07-24T04:53:37.524Z,14.17
2018-07-24T04:56:06.606Z,13.53
2018-07-24T04:58:35.688Z,14.57
2018-07-24T05:01:04.832Z,12.30
2018-07-24T05:03:33.889Z,11.97
2018-07-24T05:06:02.976Z,15.13
2018-07-24T05:08:32.044Z,11.53
2018-07-24T05:11:01.116Z,13.13
2018-07-24T05:13:30.199Z,16.60
2018-07-24T05:15:59.263Z,13.17
2018-07-24T05:18:28.340Z,16.77
2018-07-24T05:20:57.427Z,13.80
2018-07-24T05:23:26.532Z,15.20
2018-07-24T05:25:55.659Z,14.60
2018-07-24T05:28:24.435Z,15.13
2018-07-24T05:30:53.381Z,14.63
2018-07-24T05:33:22.440Z,14.07
2018-07-24T05:35:51.514Z,13.93
2018-07-24T05:38:20.564Z,12.97
2018-07-24T05:40:49.623Z,12.00
2018-07-24T05:43:18.699Z,15.57
2018-07-24T05:45:47.760Z,12.67
2018-07-24T05:48:16.827Z,11.27
2018-07-24T05:50:45.900Z,11.47
2018-07-24T05:53:14.960Z,10.47
2018-07-24T05:55:44.037Z,9.57
2018-07-24T05:58:13.116Z,10.47
2018-07-24T06:00:42.190Z,12.30
2018-07-24T06:03:10.992Z,12.13
2018-07-24T06:05:40.093Z,9.33
2018-07-24T06:08:09.155Z,11.53
2018-07-24T06:10:38.223Z,11.77
2018-07-24T06:13:07.426Z,12.93
2018-07-24T06:15:36.435Z,10.00
2018-07-24T06:18:05.997Z,14.20
2018-07-24T06:20:35.060Z,15.10
2018-07-24T06:23:03.882Z,9.47
2018-07-24T06:25:33.071Z,12.50
2018-07-24T06:28:02.127Z,10.53
2018-07-24T06:30:31.259Z,9.20
2018-07-24T06:33:00.327Z,9.53
2018-07-24T06:35:29.462Z,11.37
2018-07-24T06:37:58.558Z,11.10
2018-07-24T06:40:27.478Z,9.47
2018-07-24T06:42:56.434Z,11.27
2018-07-24T06:45:25.499Z,10.07
2018-07-24T06:47:54.570Z,9.40
2018-07-24T06:50:23.647Z,9.07
2018-07-24T06:52:52.830Z,12.17
2018-07-24T06:55:21.903Z,8.77
2018-07-24T06:57:50.998Z,10.30
2018-07-24T07:00:20.040Z,10.87
2018-07-24T07:02:49.127Z,12.93
2018-07-24T07:05:18.184Z,11.20
2018-07-24T07:07:47.252Z,9.67
2018-07-24T07:10:16.391Z,11.57
2018-07-24T07:12:45.374Z,11.07
2018-07-24T07:15:14.442Z,11.57
2018-07-24T07:17:43.511Z,10.50
2018-07-24T07:20:12.575Z,11.47
2018-07-24T07:22:41.643Z,12.07
2018-07-24T07:25:10.714Z,10.90
2018-07-24T07:27:39.790Z,9.80
2018-07-24T07:30:08.864Z,11.27
2018-07-24T07:32:37.986Z,11.83
2018-07-24T07:35:06.974Z,10.77
2018-07-24T07:37:36.022Z,13.67
2018-07-24T07:40:05.339Z,14.63
2018-07-24T07:42:34.436Z,11.10
2018-07-24T07:45:03.515Z,13.50
2018-07-24T07:47:32.312Z,12.37
2018-07-24T07:50:01.249Z,11.57
2018-07-24T07:52:30.364Z,8.20
2018-07-24T07:54:59.226Z,7.63
2018-07-24T07:57:28.155Z,9.60
2018-07-24T07:59:57.215Z,9.50
2018-07-24T08:02:26.282Z,8.70
2018-07-24T08:04:55.349Z,8.70
2018-07-24T08:07:24.443Z,8.60
2018-07-24T08:09:53.598Z,9.13
2018-07-24T08:12:22.785Z,7.83
2018-07-24T08:14:51.794Z,10.10
2018-07-24T08:17:20.847Z,10.53
2018-07-24T08:19:49.904Z,8.77
2018-07-24T08:22:18.986Z,6.97
2018-07-24T08:24:47.731Z,8.60
2018-07-24T08:27:16.699Z,6.47
2018-07-24T08:29:45.763Z,6.77
2018-07-24T08:32:14.855Z,6.80
2018-07-24T08:34:43.903Z,7.37
2018-07-24T08:37:12.807Z,7.27
2018-07-24T08:39:41.740Z,7.93
2018-07-24T08:42:10.779Z,5.73
2018-07-24T08:44:39.855Z,6.37
2018-07-24T08:47:08.920Z,6.73
2018-07-24T08:49:37.963Z,6.53
2018-07-24T08:52:07.038Z,6.63
2018-07-24T08:54:36.416Z,8.90
2018-07-24T08:57:05.196Z,9.23
2018-07-24T08:59:34.238Z,9.73
2018-07-24T09:02:03.344Z,9.50
2018-07-24T09:04:32.395Z,9.70
2018-07-24T09:07:01.440Z,10.87
2018-07-24T09:09:30.496Z,11.13
2018-07-24T09:11:59.583Z,10.77
2018-07-24T09:14:28.676Z,9.03
2018-07-24T09:16:57.811Z,12.43
2018-07-24T09:19:26.855Z,11.07
2018-07-24T09:21:55.964Z,10.47
2018-07-24T09:24:25.040Z,14.20
2018-07-24T09:26:54.126Z,12.13
2018-07-24T09:29:23.296Z,9.03
2018-07-24T09:31:52.128Z,12.50
2018-07-24T09:34:21.063Z,10.50
2018-07-24T09:36:50.139Z,11.73
2018-07-24T09:39:19.219Z,11.00
2018-07-24T09:41:48.304Z,10.60
2018-07-24T09:44:17.359Z,11.67
2018-07-24T09:46:46.448Z,11.97
2018-07-24T09:49:15.516Z,9.40
2018-07-24T09:51:44.590Z,8.83
2018-07-24T09:54:13.655Z,9.73
2018-07-24T09:56:42.711Z,12.97
2018-07-24T09:59:11.828Z,11.70
2018-07-24T10:01:40.832Z,13.50
2018-07-24T10:04:09.914Z,12.90
2018-07-24T10:06:38.991Z,9.77
2018-07-24T10:09:09.576Z,12.60
2018-07-24T10:11:38.823Z,11.30
2018-07-24T10:14:07.892Z,9.13
2018-07-24T10:16:37.072Z,10.93
2018-07-24T10:19:06.071Z,6.80
2018-07-24T10:21:34.877Z,6.70
2018-07-24T10:24:03.812Z,5.80
2018-07-24T10:26:32.852Z,7.87
2018-07-24T10:29:01.911Z,7.43
2018-07-24T10:31:30.962Z,7.37
2018-07-24T10:33:59.986Z,6.33
2018-07-24T10:36:29.231Z,6.47
2018-07-24T10:38:58.259Z,9.07
2018-07-24T10:41:27.320Z,5.07
2018-07-24T10:43:56.367Z,4.80
2018-07-24T10:46:25.451Z,4.43
2018-07-24T10:48:54.507Z,5.60
2018-07-24T10:51:23.592Z,5.17
2018-07-24T10:53:52.663Z,3.97
2018-07-24T10:56:21.716Z,2.73
2018-07-24T10:58:50.775Z,4.07
2018-07-24T11:01:19.823Z,5.17
2018-07-24T11:03:49.011Z,5.13
2018-07-24T11:06:18.164Z,4.60
2018-07-24T11:08:47.212Z,6.13
2018-07-24T11:11:16.255Z,4.83
2018-07-24T11:13:45.295Z,3.40
2018-07-24T11:16:14.334Z,5.03
2018-07-24T11:18:43.368Z,3.30
2018-07-24T11:21:12.427Z,4.80
2018-07-24T11:23:41.247Z,2.87
2018-07-24T11:26:10.175Z,4.17
2018-07-24T11:28:39.237Z,6.23
2018-07-24T11:31:08.547Z,3.43
2018-07-24T11:33:37.601Z,3.57
2018-07-24T11:36:06.876Z,3.43
2018-07-24T11:38:36.138Z,5.63
2018-07-24T11:41:05.180Z,4.40
2018-07-24T11:43:34.422Z,3.20
2018-07-24T11:46:03.472Z,6.23
2018-07-24T11:48:32.528Z,5.07
2018-07-24T11:51:01.583Z,4.33
2018-07-24T11:53:30.624Z,5.23
2018-07-24T11:55:59.670Z,4.57
2018-07-24T11:58:28.721Z,9.50
2018-07-24T12:00:57.779Z,6.00
2018-07-24T12:03:26.852Z,5.17
2018-07-24T12:05:55.878Z,6.50
2018-07-24T12:08:24.924Z,7.73
2018-07-24T12:10:53.967Z,7.00
2018-07-24T12:13:23.794Z,6.57
2018-07-24T12:15:52.920Z,7.10
2018-07-24T12:18:21.979Z,6.10
2018-07-24T12:20:51.160Z,7.07
2018-07-24T12:23:20.212Z,6.93
2018-07-24T12:25:49.279Z,5.97
2018-07-24T12:28:18.360Z,6.77
2018-07-24T12:30:47.471Z,4.23
2018-07-24T12:33:16.515Z,4.30
2018-07-24T12:35:45.634Z,7.53
2018-07-24T12:38:14.636Z,8.93
2018-07-24T12:40:43.699Z,6.50
2018-07-24T12:43:12.770Z,4.57
2018-07-24T12:45:41.820Z,5.73
2018-07-24T12:48:10.888Z,4.13
2018-07-24T12:50:39.971Z,5.07
2018-07-24T12:53:09.032Z,4.13
2018-07-24T12:55:38.092Z,6.43
2018-07-24T12:58:06.883Z,8.27
2018-07-24T13:00:35.797Z,3.77
2018-07-24T13:03:05.051Z,4.40
2018-07-24T13:05:34.083Z,4.00
2018-07-24T13:08:03.126Z,4.13
2018-07-24T13:10:32.172Z,4.37
2018-07-24T13:13:01.221Z,6.97
2018-07-24T13:15:30.260Z,3.67
2018-07-24T13:17:59.327Z,6.50
2018-07-24T13:20:28.375Z,5.57
2018-07-24T13:22:57.445Z,5.93
2018-07-24T13:25:26.478Z,4.47
2018-07-24T13:27:55.518Z,5.43
2018-07-24T13:30:24.607Z,4.20
2018-07-24T13:32:53.638Z,5.73
2018-07-24T13:35:22.709Z,4.87
2018-07-24T13:37:51.755Z,5.53
2018-07-24T13:40:21.283Z,4.70
2018-07-24T13:42:50.355Z,4.07
2018-07-24T13:45:19.411Z,3.67
2018-07-24T13:47:48.448Z,4.27
2018-07-24T13:50:17.523Z,3.90
2018-07-24T13:52:46.589Z,5.93
2018-07-24T13:55:15.637Z,3.73
2018-07-24T13:57:44.686Z,4.43
2018-07-24T14:00:13.735Z,4.30
2018-07-24T14:02:42.823Z,3.40
2018-07-24T14:05:11.904Z,4.10
2018-07-24T14:07:40.958Z,3.10
2018-07-24T14:10:09.767Z,3.93
2018-07-24T14:12:38.446Z,2.80
2018-07-24T14:15:07.216Z,2.60
2018-07-24T14:17:35.902Z,4.27
2018-07-24T14:20:04.581Z,2.37
2018-07-24T14:22:33.303Z,2.87
2018-07-24T14:25:02.043Z,2.33
2018-07-24T14:27:30.798Z,4.13
2018-07-24T14:29:59.450Z,2.90
2018-07-24T14:32:28.234Z,3.97
2018-07-24T14:34:56.946Z,3.57
2018-07-24T14:37:25.731Z,2.70
2018-07-24T14:39:54.409Z,3.60
2018-07-24T14:42:23.048Z,3.50
2018-07-24T14:44:51.731Z,2.10
2018-07-24T14:47:20.452Z,2.77
2018-07-24T14:49:49.127Z,2.23
2018-07-24T14:52:17.824Z,1.70
2018-07-24T14:54:46.527Z,3.27
2018-07-24T14:57:15.301Z,2.97
2018-07-24T14:59:43.996Z,2.00
2018-07-24T15:02:13.634Z,2.17
2018-07-24T15:04:42.391Z,2.73
2018-07-24T15:07:11.024Z,3.47
2018-07-24T15:09:39.735Z,2.07
2018-07-24T15:12:08.443Z,1.90
2018-07-24T15:22:01.840Z,3.07
2018-07-24T15:24:30.547Z,1.77
2018-07-24T15:26:59.312Z,2.00
2018-07-24T16:30:09.866Z,2.70
2018-07-24T16:32:38.570Z,2.10
2018-07-24T16:35:07.246Z,2.10
2018-07-24T16:37:35.907Z,1.77
2018-07-24T16:40:04.738Z,3.67
2018-07-24T16:42:33.494Z,4.97
2018-07-24T16:45:02.215Z,12.40
2018-07-24T16:47:30.914Z,15.03
2018-07-24T16:49:59.581Z,2.40
2018-07-24T16:52:28.272Z,3.23
2018-07-24T16:54:56.946Z,4.93
2018-07-24T16:57:25.642Z,1.77
2018-07-24T16:59:54.306Z,2.80
2018-07-24T17:02:23.227Z,4.10
2018-07-24T17:04:52.005Z,24.93
2018-07-24T17:07:20.683Z,24.50
2018-07-24T17:09:49.356Z,2.87
2018-07-24T17:12:18.018Z,2.93
2018-07-24T17:14:46.666Z,1.80
2018-07-24T17:17:15.436Z,2.23
2018-07-24T17:19:44.162Z,3.30
2018-07-24T17:22:12.808Z,1.83
2018-07-24T17:24:41.502Z,1.83
2018-07-24T17:27:10.190Z,2.10
2018-07-24T17:29:38.964Z,1.97
2018-07-24T17:32:07.666Z,6.07
2018-07-24T17:34:36.340Z,64.03
2018-07-24T17:37:05.216Z,15.03
2018-07-24T17:39:33.932Z,50.93
2018-07-24T17:42:02.624Z,13.67
2018-07-24T17:44:31.287Z,4.57
2018-07-24T17:47:00.012Z,127.63
2018-07-24T17:49:28.690Z,188.27
2018-07-24T17:51:57.357Z,112.53
2018-07-24T17:54:26.160Z,35.47
2018-07-24T17:56:54.922Z,40.00
2018-07-24T17:59:23.711Z,32.03
2018-07-24T18:01:52.823Z,15.53
2018-07-24T18:04:21.474Z,9.87
2018-07-24T18:06:50.182Z,34.00
2018-07-24T18:09:18.887Z,8.03
2018-07-24T18:11:47.716Z,2.80
2018-07-24T18:14:16.371Z,3.50
2018-07-24T18:16:45.111Z,3.40
2018-07-24T18:19:13.916Z,3.13
2018-07-24T18:21:42.602Z,4.90
2018-07-24T18:24:11.294Z,4.17
2018-07-24T18:26:39.985Z,3.00
2018-07-24T18:29:08.658Z,2.87
2018-07-24T18:31:37.311Z,2.70
2018-07-24T18:34:06.342Z,3.03
2018-07-24T18:36:35.010Z,3.63
2018-07-24T18:39:03.948Z,2.67
2018-07-24T18:41:32.658Z,3.50
2018-07-24T18:44:01.409Z,4.77
2018-07-24T18:46:30.082Z,16.57
2018-07-24T18:48:58.871Z,36.17
2018-07-24T18:51:27.554Z,4.97
2018-07-24T18:53:56.211Z,2.77
2018-07-24T18:56:24.858Z,4.67
2018-07-24T18:58:53.530Z,2.10
2018-07-24T19:01:22.311Z,8.30
2018-07-24T19:03:50.990Z,3.20
2018-07-24T19:06:19.674Z,4.67
2018-07-24T19:08:48.492Z,3.70
2018-07-24T19:11:17.220Z,4.10
2018-07-24T19:13:45.862Z,2.83
2018-07-24T19:16:14.519Z,3.13
2018-07-24T19:18:43.183Z,3.43
2018-07-24T19:21:11.954Z,3.07
2018-07-24T19:23:40.639Z,3.57
2018-07-24T19:26:09.478Z,3.07
2018-07-24T19:28:38.261Z,4.93
2018-07-24T19:31:07.163Z,4.37
2018-07-24T19:33:35.823Z,2.90
2018-07-24T19:36:04.541Z,3.93
2018-07-24T19:38:33.160Z,2.80
2018-07-24T19:41:01.823Z,3.27
2018-07-24T19:43:30.506Z,4.03
2018-07-24T19:45:59.250Z,3.43
2018-07-24T19:48:27.918Z,3.97
2018-07-24T19:50:56.583Z,2.97
2018-07-24T19:53:25.242Z,4.10
2018-07-24T19:55:54.013Z,5.40
2018-07-24T19:58:22.698Z,3.10
2018-07-24T20:00:51.359Z,4.03
2018-07-24T20:03:20.011Z,5.00
2018-07-24T20:05:48.680Z,4.87
2018-07-24T20:08:17.361Z,4.73
2018-07-24T20:10:46.130Z,4.77
2018-07-24T20:13:14.906Z,5.67
2018-07-24T20:15:43.613Z,5.07
2018-07-24T20:18:12.363Z,5.27
2018-07-24T20:20:41.090Z,4.17
2018-07-24T20:23:09.769Z,4.77
2018-07-24T20:25:38.455Z,5.20
2018-07-24T20:28:07.105Z,5.90
2018-07-24T20:30:35.813Z,4.37
2018-07-24T20:33:04.584Z,4.97
2018-07-24T20:35:33.322Z,4.87
2018-07-24T20:38:01.988Z,4.57
2018-07-24T20:40:30.659Z,4.60
2018-07-24T20:42:59.659Z,5.27
2018-07-24T20:45:28.358Z,5.23
2018-07-24T20:47:57.037Z,6.10
2018-07-24T20:50:25.728Z,4.93
2018-07-24T20:52:54.523Z,4.53
2018-07-24T20:55:23.204Z,5.27
2018-07-24T20:57:51.887Z,7.30
2018-07-24T21:00:20.670Z,4.13
2018-07-24T21:02:49.559Z,6.60
2018-07-24T21:05:18.488Z,6.57
2018-07-24T21:07:47.219Z,6.23
2018-07-24T21:10:17.271Z,5.10
2018-07-24T21:12:47.382Z,5.17
2018-07-24T21:15:16.782Z,6.53
2018-07-24T21:17:45.443Z,5.27
2018-07-24T21:20:14.128Z,5.07
2018-07-24T21:22:42.815Z,5.93
2018-07-24T21:25:11.482Z,8.70
2018-07-24T21:27:40.219Z,5.13
2018-07-24T21:30:09.675Z,6.17
2018-07-24T21:32:38.334Z,5.83
2018-07-24T21:35:07.079Z,5.07
2018-07-24T21:37:35.729Z,6.27
2018-07-24T21:40:04.623Z,4.63
2018-07-24T21:42:33.427Z,4.57
2018-07-24T21:45:02.145Z,4.73
2018-07-24T21:47:30.835Z,5.97
2018-07-24T21:49:59.657Z,7.27
2018-07-24T21:52:28.324Z,5.53
2018-07-24T21:54:57.100Z,5.97
2018-07-24T21:57:25.803Z,6.03
2018-07-24T21:59:54.544Z,6.73
2018-07-24T22:02:23.247Z,6.10
2018-07-24T22:04:52.123Z,5.13
2018-07-24T22:07:20.786Z,6.53
2018-07-24T22:09:49.524Z,5.50
2018-07-24T22:12:18.268Z,7.13
2018-07-24T22:14:46.917Z,5.67
2018-07-24T22:17:15.578Z,7.67
2018-07-24T22:19:44.323Z,6.40
2018-07-24T22:22:13.051Z,6.30
2018-07-24T22:24:41.731Z,7.23
2018-07-24T22:27:10.411Z,5.93
2018-07-24T22:29:39.062Z,5.93
2018-07-24T22:32:07.711Z,6.23
2018-07-24T22:34:36.388Z,9.50
2018-07-24T22:37:05.030Z,6.80
2018-07-24T22:39:33.725Z,7.53
2018-07-24T22:42:02.342Z,5.87
2018-07-24T22:44:31.039Z,6.57
2018-07-24T22:46:59.698Z,7.20
2018-07-24T22:49:28.481Z,7.43
2018-07-24T22:51:57.182Z,6.67
2018-07-24T22:54:25.870Z,7.43
2018-07-24T22:56:54.637Z,8.50
2018-07-24T22:59:23.342Z,8.33
2018-07-24T23:01:52.001Z,5.73
2018-07-24T23:04:20.687Z,7.57
2018-07-24T23:06:49.339Z,7.53
2018-07-24T23:09:18.089Z,6.47
2018-07-24T23:11:46.754Z,5.80
2018-07-24T23:14:15.446Z,8.57
2018-07-24T23:16:44.134Z,6.77
2018-07-24T23:19:12.814Z,6.60
2018-07-24T23:21:41.473Z,5.10
2018-07-24T23:24:10.183Z,6.83
2018-07-24T23:26:38.846Z,6.43
2018-07-24T23:29:07.553Z,7.47
2018-07-24T23:31:36.196Z,6.60
2018-07-24T23:34:04.949Z,7.50
2018-07-24T23:36:33.759Z,9.03
2018-07-24T23:39:02.546Z,6.47
2018-07-24T23:41:31.200Z,7.37
2018-07-24T23:43:59.894Z,7.90
2018-07-24T23:46:28.574Z,8.70
2018-07-24T23:48:57.267Z,7.10
2018-07-24T23:51:25.916Z,6.20
2018-07-24T23:53:54.630Z,7.33
2018-07-24T23:56:23.282Z,9.00
2018-07-24T23:58:51.935Z,8.80
